Terminal Aerodrome Forecast
Issued by NWS Amarillo, TX

Home | Current Version | Previous Version | Text Only | Print | Product List | Glossary On
Versions: 1 2 3 4 5 6 7 8 9 10 11 12 13 14 15 16 17 18
000
FTUS44 KAMA 241120
TAFDHT
TAF
KDHT 241120Z 2412/2512 16010KT P6SM BKN030
      TEMPO 2412/2416 4SM BR OVC010
     FM241700 18014G24KT P6SM OVC080
     FM250400 VRB06KT P6SM BKN100=

USA.gov is the U.S. government's official web portal to all federal, state and local government web resources and services.